Terminal Aerodrome Forecast
Issued by NWS Boston, MA

Home | Current Version | Previous Version | Text Only | Print | Product List | Glossary On
Versions: 1 2 3 4 5 6 7 8 9 10 11 12 13 14 15 16 17 18 19 20 21 22 23 24 25 26 27 28 29 30 31 32 33 34 35 36 37 38 39 40 41 42 43 44 45
000
FTUS41 KBOX 260537
TAFPVD
TAF
KPVD 260537Z 2606/2706 32006KT P6SM SCT140
     FM260900 02007KT P6SM BKN110
     FM261700 05011G19KT P6SM OVC015
     FM261900 05012G22KT 3SM -SN OVC015
     FM262100 05013G26KT 1/2SM SN OVC015
     FM270000 04015G35KT 1/4SM +SN BLSN OVC010=

USA.gov is the U.S. government's official web portal to all federal, state and local government web resources and services.